Time;durP1;ratioP1;P1;durP2;ratioP2;P2;SDS_P1;SDS_P2;PMS_P1;PMS_P2;Temp;Humidity;BMP_temperature;BMP_pressure;BME280_temperature;BME280_humidity;BME280_pressure;Samples;Min_cycle;Max_cycle;Signal;HPM_P1;HPM_P2
2022/07/13 00:00:58;;;;;;;72.35;68.75;;;;;;;29.76;36.91;101985.75;4955730;28;20056;-83
2022/07/13 00:03:23;;;;;;;67.32;64.13;;;;;;;29.73;37.11;101984.47;4955893;28;20512;-81
2022/07/13 00:05:48;;;;;;;66.65;63.30;;;;;;;29.71;37.37;101978.47;4956457;28;20039;-82
2022/07/13 00:08:14;;;;;;;66.70;63.50;;;;;;;29.70;36.94;101976.00;4954842;29;20392;-82
2022/07/13 00:10:39;;;;;;;63.53;60.38;;;;;;;29.66;36.98;101972.28;4956051;28;20098;-84
2022/07/13 00:13:05;;;;;;;65.00;61.85;;;;;;;29.63;36.79;101970.97;4955904;28;20042;-82
2022/07/13 00:15:30;;;;;;;65.30;62.25;;;;;;;29.62;36.70;101969.34;4955970;28;20027;-83
2022/07/13 00:17:55;;;;;;;66.78;63.58;;;;;;;29.60;37.04;101966.09;4955772;28;20114;-80
2022/07/13 00:20:21;;;;;;;65.65;62.45;;;;;;;29.58;36.99;101954.47;4956242;28;20089;-82
2022/07/13 00:22:47;;;;;;;65.28;61.95;;;;;;;29.55;36.76;101952.38;4956129;28;20035;-78
2022/07/13 00:25:12;;;;;;;63.08;59.97;;;;;;;29.52;36.85;101953.88;4971006;28;20118;-83
2022/07/13 00:27:37;;;;;;;61.97;58.97;;;;;;;29.50;36.73;101958.16;4955810;28;20078;-81
2022/07/13 00:30:03;;;;;;;62.90;59.80;;;;;;;29.49;36.51;101948.19;4955811;28;20094;-81
2022/07/13 00:32:28;;;;;;;67.00;63.80;;;;;;;29.47;36.64;101951.31;4956374;28;20035;-82
2022/07/13 00:34:54;;;;;;;65.55;62.35;;;;;;;29.45;36.52;101950.84;4938322;29;20126;-82
2022/07/13 00:37:19;;;;;;;68.20;65.00;;;;;;;29.43;36.67;101952.34;4955731;28;20035;-81
2022/07/13 00:39:44;;;;;;;64.25;60.75;;;;;;;29.41;36.76;101941.56;4954895;28;20361;-82
2022/07/13 00:42:10;;;;;;;67.20;63.88;;;;;;;29.39;36.66;101937.50;4955841;28;20027;-82
2022/07/13 00:44:35;;;;;;;65.80;62.67;;;;;;;29.35;36.69;101942.91;4955634;28;20046;-81
2022/07/13 00:47:01;;;;;;;69.13;65.78;;;;;;;29.34;36.75;101938.53;4955517;28;20126;-82
2022/07/13 00:49:27;;;;;;;64.15;60.85;;;;;;;29.32;36.85;101932.47;4955460;28;20035;-80
2022/07/13 00:51:52;;;;;;;65.28;62.00;;;;;;;29.29;36.80;101933.97;4954463;29;20050;-81
2022/07/13 00:54:19;;;;;;;63.53;60.20;;;;;;;29.28;36.89;101931.53;4955994;28;20063;-81
2022/07/13 00:56:45;;;;;;;63.17;60.17;;;;;;;29.25;36.72;101924.66;4955602;28;20031;-82
2022/07/13 00:59:11;;;;;;;62.08;58.65;;;;;;;29.23;36.56;101928.94;4955355;28;20169;-81
2022/07/13 01:01:36;;;;;;;65.53;62.40;;;;;;;29.22;36.81;101916.22;4955304;28;20107;-78
2022/07/13 01:04:02;;;;;;;65.88;62.47;;;;;;;29.20;36.84;101919.31;4955826;28;20035;-83
2022/07/13 01:06:27;;;;;;;62.20;59.10;;;;;;;29.18;36.98;101918.03;4955369;28;20114;-81
2022/07/13 01:08:53;;;;;;;67.85;64.20;;;;;;;29.16;36.59;101915.63;4954457;28;20085;-82
2022/07/13 01:11:19;;;;;;;65.55;62.35;;;;;;;29.14;36.82;101912.34;4956685;28;20105;-80
2022/07/13 01:13:45;;;;;;;60.95;57.95;;;;;;;29.11;36.76;101910.25;4954878;28;20465;-81
2022/07/13 01:16:10;;;;;;;64.72;61.42;;;;;;;29.09;36.84;101915.34;4955611;28;20443;-81
2022/07/13 01:18:37;;;;;;;61.13;58.10;;;;;;;29.08;36.73;101914.53;4955527;28;20572;-83
2022/07/13 01:21:05;;;;;;;65.50;62.40;;;;;;;29.05;36.92;101923.53;4955322;28;20042;-82
2022/07/13 01:23:32;;;;;;;63.05;60.10;;;;;;;29.03;37.12;101913.88;4955489;28;20083;-82
2022/07/13 01:25:58;;;;;;;66.88;63.78;;;;;;;29.01;37.00;101910.66;4955153;28;20456;-81
2022/07/13 01:28:24;;;;;;;64.25;60.95;;;;;;;28.99;36.76;101910.97;4955145;28;20499;-81
2022/07/13 01:30:49;;;;;;;63.45;60.35;;;;;;;28.98;36.73;101909.34;4955126;28;20031;-82
2022/07/13 01:33:15;;;;;;;60.97;58.00;;;;;;;28.96;36.56;101914.44;4955124;28;20035;-83
2022/07/13 01:35:41;;;;;;;61.80;58.80;;;;;;;28.94;36.53;101908.41;4955710;28;20034;-81
2022/07/13 01:38:06;;;;;;;64.57;61.38;;;;;;;28.90;36.61;101902.72;4970046;28;20464;-81
2022/07/13 01:40:32;;;;;;;61.65;58.58;;;;;;;28.90;36.75;101904.66;4955310;28;20057;-83
2022/07/13 01:42:58;;;;;;;64.35;61.17;;;;;;;28.88;36.55;101905.03;4954738;28;20044;-82
2022/07/13 01:45:24;;;;;;;64.85;61.75;;;;;;;28.86;36.70;101898.97;4955588;28;20444;-82
2022/07/13 01:47:52;;;;;;;64.30;61.20;;;;;;;28.86;36.82;101903.72;4955988;28;20031;-80
2022/07/13 01:50:20;;;;;;;63.08;60.05;;;;;;;28.83;36.55;101898.84;4971549;28;20059;-81
2022/07/13 01:52:46;;;;;;;61.27;58.27;;;;;;;28.81;36.70;101895.59;4958180;28;20130;-83
2022/07/13 01:55:12;;;;;;;65.82;62.35;;;;;;;28.79;36.80;101900.69;4958831;28;20278;-82
2022/07/13 01:57:38;;;;;;;60.70;57.78;;;;;;;28.77;36.73;101898.22;4958693;28;20035;-81
2022/07/13 02:00:06;;;;;;;64.05;61.00;;;;;;;28.74;36.67;101887.78;4958429;28;20090;-80
2022/07/13 02:02:31;;;;;;;;;;;;;;;28.71;36.95;101885.69;4957315;28;20029;-82
2022/07/13 02:04:57;;;;;;;62.72;59.17;;;;;;;28.69;37.16;101888.00;4957856;29;19922;-77
2022/07/13 02:07:23;;;;;;;62.03;58.78;;;;;;;28.67;36.69;101885.53;4958400;28;20388;-83
2022/07/13 02:09:49;;;;;;;61.13;58.13;;;;;;;28.67;36.88;101884.72;4957792;28;20503;-82
2022/07/13 02:12:15;;;;;;;62.13;58.80;;;;;;;28.64;36.98;101874.28;4958490;28;20047;-82
2022/07/13 02:14:41;;;;;;;61.42;58.42;;;;;;;28.62;36.51;101871.84;4958312;28;20455;-82
2022/07/13 02:17:06;;;;;;;62.63;59.45;;;;;;;28.61;36.91;101863.84;4958015;28;20604;-83
2022/07/13 02:19:31;;;;;;;62.70;59.60;;;;;;;28.58;36.79;101865.34;4956959;29;20031;-79
2022/07/13 02:21:57;;;;;;;59.70;56.60;;;;;;;28.57;36.69;101862.91;4957972;28;20039;-79
2022/07/13 02:24:22;;;;;;;59.20;56.10;;;;;;;28.55;36.74;101854.91;4957673;28;20031;-82
2022/07/13 02:26:47;;;;;;;63.05;59.95;;;;;;;28.53;36.82;101851.66;4958306;28;20032;-81
2022/07/13 02:29:13;;;;;;;59.90;56.53;;;;;;;28.52;36.88;101854.75;4958564;28;20062;-82
2022/07/13 02:31:38;;;;;;;62.97;59.80;;;;;;;28.50;36.88;101854.28;4956599;29;20039;-83
2022/07/13 02:34:04;;;;;;;58.28;55.47;;;;;;;28.47;36.85;101859.34;4957808;28;20468;-82
2022/07/13 02:36:29;;;;;;;60.72;57.65;;;;;;;28.46;36.85;101852.19;4958719;28;20030;-83
2022/07/13 02:38:54;;;;;;;59.03;56.03;;;;;;;28.44;36.66;101848.91;4957885;28;20090;-81
2022/07/13 02:41:20;;;;;;;57.60;54.80;;;;;;;28.43;36.94;101852.84;4957568;28;20038;-83
2022/07/13 02:43:45;;;;;;;59.17;56.28;;;;;;;28.41;36.70;101852.34;4957467;28;20066;-84
2022/07/13 02:46:10;;;;;;;60.05;56.65;;;;;;;28.39;36.92;101860.19;4957297;28;20488;-83
2022/07/13 02:48:36;;;;;;;61.20;58.22;;;;;;;28.39;36.89;101851.06;4957106;29;20428;-83
2022/07/13 02:51:01;;;;;;;57.63;54.63;;;;;;;28.35;36.88;101848.16;4957483;28;20038;-77
2022/07/13 02:53:27;;;;;;;61.03;58.00;;;;;;;28.35;37.03;101855.66;4957536;28;20085;-84
2022/07/13 02:55:52;;;;;;;57.15;54.15;;;;;;;28.33;36.92;101850.44;4957728;28;20384;-82
2022/07/13 02:58:17;;;;;;;64.20;60.75;;;;;;;28.31;37.07;101855.53;4957190;28;20477;-82
2022/07/13 03:00:43;;;;;;;60.00;56.75;;;;;;;28.30;37.26;101856.69;4956942;28;20540;-83
2022/07/13 03:03:08;;;;;;;60.80;57.75;;;;;;;28.28;36.80;101861.75;4956485;28;20035;-83
2022/07/13 03:05:33;;;;;;;59.30;56.10;;;;;;;28.26;36.81;101856.53;4957785;28;20483;-83
2022/07/13 03:07:59;;;;;;;58.72;55.85;;;;;;;28.24;37.34;101855.25;4956954;28;20069;-83
2022/07/13 03:10:24;;;;;;;59.45;56.55;;;;;;;28.23;37.30;101850.84;4971715;28;20416;-85
2022/07/13 03:12:49;;;;;;;59.25;55.92;;;;;;;28.20;37.14;101849.56;4957595;28;20043;-84
2022/07/13 03:15:15;;;;;;;57.42;54.63;;;;;;;28.19;37.37;101853.47;4957537;28;20042;-84
2022/07/13 03:17:43;;;;;;;64.93;61.75;;;;;;;28.18;37.31;101854.63;4957091;28;20489;-85
2022/07/13 03:20:10;;;;;;;60.22;57.15;;;;;;;28.16;37.04;101848.59;4971470;28;20130;-83
2022/07/13 03:22:35;;;;;;;57.33;54.55;;;;;;;28.15;37.06;101849.75;4972252;28;20166;-83
2022/07/13 03:25:02;;;;;;;57.60;54.80;;;;;;;28.14;37.34;101850.06;4956992;28;20118;-82
2022/07/13 03:27:27;;;;;;;59.60;56.60;;;;;;;28.11;37.18;101845.19;4956368;28;20047;-86
2022/07/13 03:29:53;;;;;;;59.17;56.03;;;;;;;28.09;37.23;101844.72;4957007;28;20380;-84
2022/07/13 03:32:18;;;;;;;58.20;55.38;;;;;;;28.08;37.22;101846.69;4955647;29;20035;-82
2022/07/13 03:34:44;;;;;;;61.95;58.33;;;;;;;28.05;37.37;101842.63;4956620;28;20095;-83
2022/07/13 03:37:09;;;;;;;59.85;56.75;;;;;;;28.04;37.01;101842.94;4956552;28;20064;-83
2022/07/13 03:39:35;;;;;;;57.30;54.40;;;;;;;28.02;37.26;101839.66;4956635;28;20179;-84
2022/07/13 03:42:00;;;;;;;56.17;53.17;;;;;;;28.01;37.41;101826.94;4955442;29;20036;-83
2022/07/13 03:44:26;;;;;;;59.28;56.38;;;;;;;27.99;37.53;101841.16;4972951;28;20072;-84
2022/07/13 03:46:51;;;;;;;59.20;56.20;;;;;;;27.97;37.43;101837.94;4957238;28;20035;-82
2022/07/13 03:49:16;;;;;;;57.70;54.72;;;;;;;27.96;37.40;101841.03;4956693;28;20112;-83
2022/07/13 03:51:42;;;;;;;59.63;56.63;;;;;;;27.94;37.13;101844.13;4956579;28;20070;-83
2022/07/13 03:54:08;;;;;;;61.80;58.70;;;;;;;27.94;37.41;101851.66;4956225;28;20491;-82
2022/07/13 03:56:33;;;;;;;57.55;54.55;;;;;;;27.92;37.47;101843.66;4956220;28;20444;-83
2022/07/13 03:58:59;;;;;;;56.65;53.85;;;;;;;27.91;37.51;101844.00;4956242;28;20041;-82
2022/07/13 04:01:24;;;;;;;58.58;55.58;;;;;;;27.90;37.24;101845.16;4956020;28;20090;-83
2022/07/13 04:03:51;;;;;;;57.75;54.42;;;;;;;27.88;37.64;101839.13;4971753;28;20523;-82
2022/07/13 04:06:17;;;;;;;58.13;55.22;;;;;;;27.86;37.44;101838.63;4956062;28;20082;-84
2022/07/13 04:08:42;;;;;;;59.47;56.53;;;;;;;27.85;37.61;101837.81;4956656;28;20039;-81
2022/07/13 04:11:07;;;;;;;58.13;55.17;;;;;;;27.83;37.25;101826.22;4957139;28;20085;-82
2022/07/13 04:13:33;;;;;;;57.53;54.65;;;;;;;27.81;37.45;101817.38;4957034;28;20071;-84
2022/07/13 04:15:58;;;;;;;56.42;53.67;;;;;;;27.81;37.53;101817.38;4957128;28;20062;-82
2022/07/13 04:18:23;;;;;;;57.38;54.45;;;;;;;27.79;37.59;101828.00;4956874;28;20035;-82
2022/07/13 04:20:49;;;;;;;57.50;54.33;;;;;;;27.76;37.75;101823.94;4957148;28;20377;-83
2022/07/13 04:23:14;;;;;;;58.05;55.05;;;;;;;27.76;37.25;101825.91;4956200;28;20039;-82
2022/07/13 04:25:39;;;;;;;57.13;54.42;;;;;;;27.74;37.58;101823.44;4956672;28;20047;-82
2022/07/13 04:28:05;;;;;;;55.95;53.15;;;;;;;27.73;37.51;101821.81;4956210;28;20427;-82
2022/07/13 04:30:30;;;;;;;58.60;55.63;;;;;;;27.71;37.38;101826.09;4970367;28;20087;-82
2022/07/13 04:32:55;;;;;;;55.45;52.65;;;;;;;27.70;37.76;101816.94;4955775;28;20046;-84
2022/07/13 04:35:21;;;;;;;59.22;56.22;;;;;;;27.69;37.64;101820.03;4955433;28;20074;-83
2022/07/13 04:37:46;;;;;;;54.75;52.05;;;;;;;27.67;37.51;101820.41;4955565;28;20464;-84
2022/07/13 04:40:12;;;;;;;57.67;54.78;;;;;;;27.66;37.73;101812.41;4955430;28;20491;-82
2022/07/13 04:42:37;;;;;;;59.15;55.75;;;;;;;27.64;37.72;101809.94;4955451;28;20119;-84
2022/07/13 04:45:03;;;;;;;54.80;51.88;;;;;;;27.63;37.82;101813.88;4956200;28;20083;-82
2022/07/13 04:47:28;;;;;;;56.53;53.47;;;;;;;27.61;37.84;101814.19;4955365;28;20039;-83
2022/07/13 04:49:54;;;;;;;57.92;55.13;;;;;;;27.61;37.67;101807.84;4955734;28;20066;-83
2022/07/13 04:52:19;;;;;;;56.55;53.47;;;;;;;27.59;37.43;101807.34;4970491;28;20036;-84
2022/07/13 04:54:44;;;;;;;55.38;52.67;;;;;;;27.57;37.88;101810.47;4955342;28;20102;-84
2022/07/13 04:57:10;;;;;;;57.45;54.75;;;;;;;27.56;37.62;101808.84;4970249;28;20039;-84
2022/07/13 04:59:36;;;;;;;58.05;55.25;;;;;;;27.54;38.00;101802.81;4955757;28;20492;-84
2022/07/13 05:02:01;;;;;;;55.65;52.92;;;;;;;27.54;37.90;101813.09;4970399;28;20039;-82
2022/07/13 05:04:26;;;;;;;57.97;54.88;;;;;;;27.52;37.77;101813.44;4955393;28;20102;-85
2022/07/13 05:06:52;;;;;;;55.88;53.05;;;;;;;27.51;37.90;101813.75;4955297;28;20055;-83
2022/07/13 05:09:17;;;;;;;58.42;55.20;;;;;;;27.49;38.00;101805.75;4954525;28;20081;-84
2022/07/13 05:11:42;;;;;;;55.20;52.50;;;;;;;27.50;38.01;101810.19;4969956;28;20649;-86
2022/07/13 05:14:08;;;;;;;56.42;53.63;;;;;;;27.48;37.84;101811.66;4955721;28;20027;-84
2022/07/13 05:16:33;;;;;;;58.40;55.55;;;;;;;27.46;37.61;101806.44;4955338;28;20142;-84
2022/07/13 05:18:59;;;;;;;57.60;54.83;;;;;;;27.45;38.15;101813.13;4955430;28;20073;-84
2022/07/13 05:21:24;;;;;;;58.63;55.78;;;;;;;27.44;37.79;101810.69;4957125;28;20031;-82
2022/07/13 05:23:49;;;;;;;55.15;52.22;;;;;;;27.44;37.73;101813.44;4955505;29;20094;-83
2022/07/13 05:26:15;;;;;;;55.25;52.55;;;;;;;27.44;37.86;101816.22;4958668;28;20082;-84
2022/07/13 05:28:41;;;;;;;59.42;56.53;;;;;;;27.42;38.06;101819.34;4962547;28;20161;-82
2022/07/13 05:31:06;;;;;;;54.83;52.13;;;;;;;27.40;38.11;101821.63;4960817;28;20110;-86
2022/07/13 05:33:31;;;;;;;56.60;53.80;;;;;;;27.39;38.05;101825.53;4959187;28;20098;-85
2022/07/13 05:35:57;;;;;;;53.53;50.92;;;;;;;27.37;37.83;101823.13;4959428;28;20031;-82
2022/07/13 05:38:22;;;;;;;56.80;53.53;;;;;;;27.37;37.97;101823.13;4974364;28;20449;-83
2022/07/13 05:40:48;;;;;;;54.08;51.38;;;;;;;27.37;38.31;101825.06;4962043;28;20051;-87
2022/07/13 05:43:14;;;;;;;58.28;55.38;;;;;;;27.36;37.73;101820.66;4964710;28;20114;-88
2022/07/13 05:45:39;;;;;;;56.75;54.05;;;;;;;27.35;38.25;101830.13;4978241;28;20028;-84
2022/07/13 05:48:04;;;;;;;56.85;54.13;;;;;;;27.34;37.90;101825.72;4971686;29;20035;-88
2022/07/13 05:50:30;;;;;;;56.75;53.88;;;;;;;27.32;37.78;101828.84;4960776;28;20043;-84
2022/07/13 05:52:55;;;;;;;59.45;56.55;;;;;;;27.33;38.39;101832.41;4959191;28;20556;-84
2022/07/13 05:55:20;;;;;;;55.28;52.28;;;;;;;27.32;38.05;101834.38;4958641;28;20036;-86
2022/07/13 05:57:46;;;;;;;54.55;51.75;;;;;;;27.32;38.01;101837.16;4959325;28;20081;-79
2022/07/13 06:00:13;;;;;;;54.88;51.97;;;;;;;27.31;38.03;101826.38;4959202;28;20035;-83
2022/07/13 06:02:40;;;;;;;54.30;51.58;;;;;;;27.31;38.16;101840.25;4958666;28;20027;-86
2022/07/13 06:05:06;;;;;;;54.53;51.80;;;;;;;27.30;37.79;101838.63;4958831;28;20035;-83
2022/07/13 06:07:31;;;;;;;55.83;53.03;;;;;;;27.30;38.06;101846.97;4957187;28;20159;-85
2022/07/13 06:09:58;;;;;;;53.63;50.92;;;;;;;27.29;38.11;101848.94;4964148;28;20122;-85
2022/07/13 06:12:24;;;;;;;55.63;52.75;;;;;;;27.28;38.54;101833.41;4964818;28;20035;-84
2022/07/13 06:14:50;;;;;;;54.45;51.80;;;;;;;27.27;38.47;101829.00;4963413;28;20042;-84
2022/07/13 06:17:15;;;;;;;51.33;48.63;;;;;;;27.28;38.41;101835.38;4959826;28;20031;-83
2022/07/13 06:19:41;;;;;;;54.17;51.40;;;;;;;27.26;38.48;101838.47;4958474;28;20066;-83
2022/07/13 06:22:07;;;;;;;54.63;51.47;;;;;;;27.26;38.23;101832.09;4965829;29;20110;-85
2022/07/13 06:24:32;;;;;;;61.03;57.75;;;;;;;27.26;38.43;101827.38;4946398;29;20046;-83
2022/07/13 06:26:58;;;;;;;55.53;52.83;;;;;;;27.26;38.44;101823.78;4964676;28;20111;-85
2022/07/13 06:29:23;;;;;;;53.83;51.00;;;;;;;27.26;38.66;101834.88;4959778;28;20062;-86
2022/07/13 06:31:48;;;;;;;52.17;49.58;;;;;;;27.25;38.35;101834.06;4957895;28;20045;-87
2022/07/13 06:34:14;;;;;;;54.58;51.55;;;;;;;27.26;38.80;101832.09;4955612;29;20035;-83
2022/07/13 06:36:39;;;;;;;53.95;51.28;;;;;;;27.26;38.91;101832.91;4955903;28;20032;-82
2022/07/13 06:39:05;;;;;;;53.92;51.15;;;;;;;27.26;38.66;101832.09;4958592;28;20184;-83
2022/07/13 06:41:30;;;;;;;57.15;53.75;;;;;;;27.26;38.57;101835.69;4957708;28;20032;-83
2022/07/13 06:43:56;;;;;;;55.95;52.55;;;;;;;27.26;38.97;101832.09;4957361;28;20031;-82
2022/07/13 06:46:22;;;;;;;53.40;50.45;;;;;;;27.27;38.90;101842.06;4974414;28;20031;-85
2022/07/13 06:48:48;;;;;;;52.38;49.65;;;;;;;27.28;38.70;101843.69;4940720;28;20054;-85
2022/07/13 06:51:13;;;;;;;56.83;53.92;;;;;;;27.28;39.00;101838.16;4956903;28;20035;-83
2022/07/13 06:53:38;;;;;;;52.15;49.45;;;;;;;27.29;38.88;101845.31;4956783;28;20129;-81
2022/07/13 06:56:04;;;;;;;56.47;53.47;;;;;;;27.30;39.35;101838.63;4955747;29;20031;-82
2022/07/13 06:58:29;;;;;;;55.38;52.47;;;;;;;27.29;39.23;101846.16;4956805;28;20376;-80
2022/07/13 07:00:55;;;;;;;52.30;49.70;;;;;;;27.29;39.06;101837.81;4956868;28;20038;-76
2022/07/13 07:03:20;;;;;;;54.45;51.55;;;;;;;27.30;38.90;101838.63;4957196;28;20062;-80
2022/07/13 07:05:46;;;;;;;51.78;48.97;;;;;;;27.31;39.08;101840.25;4957069;29;20039;-83
2022/07/13 07:08:11;;;;;;;54.10;51.45;;;;;;;27.31;39.06;101841.06;4972482;28;20027;-78
2022/07/13 07:10:37;;;;;;;53.30;50.50;;;;;;;27.32;39.09;101833.59;4957012;28;20535;-80
2022/07/13 07:13:03;;;;;;;51.58;48.92;;;;;;;27.32;39.21;101830.81;4956766;28;20031;-77
2022/07/13 07:15:28;;;;;;;57.53;54.53;;;;;;;27.32;39.07;101831.63;4957222;28;20049;-79
2022/07/13 07:17:54;;;;;;;54.25;51.45;;;;;;;27.33;39.38;101835.19;4956658;28;20031;-78
2022/07/13 07:20:19;;;;;;;53.55;50.83;;;;;;;27.34;39.53;101828.50;4956599;28;20047;-79
2022/07/13 07:22:46;;;;;;;54.50;51.72;;;;;;;27.34;39.00;101826.56;4956260;28;20369;-79
2022/07/13 07:25:13;;;;;;;54.85;52.15;;;;;;;27.36;39.15;101831.75;4955046;29;20504;-78
2022/07/13 07:27:40;;;;;;;58.70;55.78;;;;;;;27.36;39.34;101829.78;4956417;28;20035;-77
2022/07/13 07:30:06;;;;;;;52.25;49.58;;;;;;;27.37;39.38;101830.63;4971171;28;20437;-78
2022/07/13 07:32:31;;;;;;;59.00;56.10;;;;;;;27.36;39.62;101827.00;4956278;28;20046;-77
2022/07/13 07:34:57;;;;;;;54.00;50.45;;;;;;;27.38;39.66;101833.06;4956449;28;20035;-77
2022/07/13 07:37:22;;;;;;;57.67;54.80;;;;;;;27.40;39.65;101832.72;4957209;28;20114;-78
2022/07/13 07:39:49;;;;;;;55.38;52.60;;;;;;;27.42;39.83;101833.22;4956107;28;20031;-78
2022/07/13 07:42:15;;;;;;;54.33;51.42;;;;;;;27.43;39.62;101828.47;4956325;28;20042;-77
2022/07/13 07:44:40;;;;;;;56.13;53.22;;;;;;;27.44;39.89;101833.69;4957012;28;20031;-81
2022/07/13 07:47:05;;;;;;;55.30;52.60;;;;;;;27.47;40.04;101837.75;4955362;28;20041;-79
2022/07/13 07:49:31;;;;;;;53.63;50.92;;;;;;;27.49;39.77;101835.47;4956440;28;20463;-81
2022/07/13 07:51:57;;;;;;;54.30;51.35;;;;;;;27.51;39.96;101836.75;4970668;28;20395;-82
2022/07/13 07:54:22;;;;;;;54.33;51.55;;;;;;;27.53;40.29;101837.25;4955618;28;20106;-81
2022/07/13 07:56:48;;;;;;;54.38;51.67;;;;;;;27.53;40.21;101837.25;4955757;28;20063;-80
2022/07/13 07:59:14;;;;;;;54.13;51.38;;;;;;;27.56;40.06;101835.78;4954855;29;20034;-81
2022/07/13 08:01:40;;;;;;;55.47;52.58;;;;;;;27.58;40.29;101839.84;4956367;28;20364;-82
2022/07/13 08:04:06;;;;;;;52.60;50.05;;;;;;;27.60;40.23;101842.31;4955791;28;20445;-81
2022/07/13 08:06:31;;;;;;;56.25;53.35;;;;;;;27.61;40.60;101839.19;4955691;28;20156;-82
2022/07/13 08:08:56;;;;;;;53.50;50.40;;;;;;;27.64;39.98;101834.91;4955622;28;20082;-82
2022/07/13 08:11:22;;;;;;;58.55;55.17;;;;;;;27.66;40.51;101845.69;4955791;28;20512;-84
2022/07/13 08:13:47;;;;;;;54.83;51.78;;;;;;;27.68;40.52;101846.19;4956076;28;20035;-81
2022/07/13 08:16:14;;;;;;;53.80;51.13;;;;;;;27.70;40.14;101839.16;4955598;28;20038;-82
2022/07/13 08:18:39;;;;;;;57.83;54.75;;;;;;;27.74;40.41;101836.50;4954891;28;20380;-82
2022/07/13 08:21:05;;;;;;;52.90;50.33;;;;;;;27.74;40.50;101842.88;4955602;28;20031;-80
2022/07/13 08:26:14;;;;;;;54.92;52.03;;;;;;;27.80;40.41;101835.19;4955612;29;20086;-80
2022/07/13 08:28:39;;;;;;;56.75;53.88;;;;;;;27.82;40.69;101847.63;4955013;28;20043;-82
2022/07/13 08:31:05;;;;;;;54.60;51.90;;;;;;;27.85;40.43;101837.81;4955729;28;20392;-84
2022/07/13 08:38:58;;;;;;;54.80;51.65;;;;;;;27.92;40.28;101846.44;4955854;29;20494;-81
2022/07/13 08:41:24;;;;;;;56.47;53.70;;;;;;;27.95;40.62;101848.56;4954941;28;20067;-83
2022/07/13 08:43:49;;;;;;;57.95;55.05;;;;;;;27.98;40.25;101847.06;4955220;28;20392;-84
2022/07/13 08:46:15;;;;;;;57.22;54.42;;;;;;;28.00;40.23;101844.78;4954029;29;20027;-82
2022/07/13 08:48:43;;;;;;;61.67;58.58;;;;;;;28.04;40.72;101856.81;4954851;28;20069;-80
2022/07/13 08:51:09;;;;;;;59.05;55.97;;;;;;;28.07;40.35;101858.91;4955228;28;20054;-81
2022/07/13 08:53:35;;;;;;;57.55;53.60;;;;;;;28.10;40.39;101849.94;4954707;28;20039;-82
2022/07/13 08:56:00;;;;;;;55.75;52.75;;;;;;;28.12;40.65;101847.63;4954020;29;20031;-78
2022/07/13 08:58:26;;;;;;;56.97;54.17;;;;;;;28.16;40.18;101850.56;4954081;28;20465;-80
2022/07/13 09:00:52;;;;;;;53.33;50.72;;;;;;;28.18;40.22;101859.38;4953194;29;20035;-80
2022/07/13 09:03:17;;;;;;;57.67;54.90;;;;;;;28.20;40.64;101860.66;4955386;28;20035;-80
2022/07/13 09:05:43;;;;;;;58.20;55.20;;;;;;;28.23;40.68;101868.31;4953346;28;20070;-81
2022/07/13 09:08:10;;;;;;;55.50;52.60;;;;;;;28.26;40.47;101875.16;4954964;28;20116;-81
2022/07/13 09:11:08;;;;;;;54.00;51.22;;;;;;;28.31;40.24;101868.59;4954747;28;20142;-82
2022/07/13 09:13:44;;;;;;;58.63;55.78;;;;;;;28.33;40.29;101856.00;4953360;28;20114;-80
2022/07/13 09:16:17;;;;;;;55.42;52.72;;;;;;;28.36;40.24;101860.88;4954938;28;20054;-78
2022/07/13 09:18:51;;;;;;;56.47;53.28;;;;;;;28.39;40.37;101862.97;4954792;28;20037;-82
2022/07/13 09:21:18;;;;;;;59.22;56.10;;;;;;;28.41;40.11;101874.59;4970023;28;20031;-82
2022/07/13 09:23:47;;;;;;;56.85;54.05;;;;;;;28.44;40.42;101873.09;4954207;28;20384;-79
2022/07/13 09:26:13;;;;;;;57.60;54.70;;;;;;;28.47;40.43;101866.88;4955018;28;20045;-79
2022/07/13 09:28:47;;;;;;;60.65;57.65;;;;;;;28.51;40.19;101853.94;4954700;28;20467;-80
2022/07/13 09:31:13;;;;;;;59.30;56.40;;;;;;;28.53;40.01;101857.22;4954858;28;20035;-80
2022/07/13 09:33:40;;;;;;;58.67;55.72;;;;;;;28.57;40.54;101858.13;4954532;28;20082;-78
2022/07/13 09:36:14;;;;;;;60.97;56.90;;;;;;;28.61;40.16;101858.28;4954557;28;20154;-79
2022/07/13 09:38:47;;;;;;;58.85;55.95;;;;;;;28.64;40.00;101852.06;4954476;28;20031;-78
2022/07/13 09:41:18;;;;;;;56.30;53.58;;;;;;;28.68;40.18;101850.22;4970330;28;20417;-79
2022/07/13 09:47:02;;;;;;;61.03;57.83;;;;;;;28.75;40.38;101858.00;4955012;29;20114;-79
2022/07/13 09:49:29;;;;;;;57.75;54.95;;;;;;;28.78;40.02;101847.03;4954905;28;20035;-77
2022/07/13 09:51:59;;;;;;;57.75;54.90;;;;;;;28.81;40.18;101854.69;4954414;28;20053;-77
2022/07/13 09:54:30;;;;;;;57.85;54.95;;;;;;;28.85;39.97;101854.81;4953653;29;20031;-78
2022/07/13 09:57:03;;;;;;;58.33;55.53;;;;;;;28.88;40.09;101865.28;4954386;28;20037;-80
2022/07/13 09:59:29;;;;;;;61.38;58.30;;;;;;;28.90;39.60;101877.69;4954679;28;20569;-79
2022/07/13 10:01:55;;;;;;;62.50;59.50;;;;;;;28.94;39.68;101869.47;4954472;28;20031;-79
2022/07/13 10:04:22;;;;;;;62.25;59.15;;;;;;;28.98;39.69;101875.16;4953995;28;20106;-78
2022/07/13 10:06:49;;;;;;;62.20;59.10;;;;;;;29.01;39.59;101878.06;4954427;28;20040;-80
2022/07/13 10:09:18;;;;;;;64.75;61.55;;;;;;;29.03;39.54;101877.72;4954040;28;20461;-79
2022/07/13 10:11:44;;;;;;;61.25;58.25;;;;;;;29.07;39.56;101878.69;4954607;28;20043;-77
2022/07/13 10:14:10;;;;;;;61.33;58.33;;;;;;;29.10;39.55;101875.22;4957842;28;20046;-79
2022/07/13 10:16:36;;;;;;;60.55;57.65;;;;;;;29.14;39.42;101886.50;4957034;28;20035;-76
2022/07/13 10:19:04;;;;;;;65.57;62.25;;;;;;;29.16;39.68;101882.22;4957456;28;20039;-76
2022/07/13 10:21:45;;;;;;;59.38;56.58;;;;;;;29.21;39.70;101889.56;4957540;28;20027;-76
2022/07/13 10:24:15;;;;;;;61.30;58.00;;;;;;;29.22;39.53;101882.81;4958557;28;20106;-79
2022/07/13 10:26:41;;;;;;;64.22;60.88;;;;;;;29.24;39.87;101886.88;4957463;28;20027;-78
2022/07/13 10:29:09;;;;;;;63.47;60.50;;;;;;;29.28;39.69;101887.84;4972633;28;20408;-78
2022/07/13 10:31:36;;;;;;;;;;;;;;;29.30;39.95;101895.81;4958052;28;20024;-80
2022/07/13 10:34:03;;;;;;;60.75;57.85;;;;;;;29.31;39.90;101884.38;4957492;28;19914;-79
2022/07/13 10:36:56;;;;;;;61.05;58.05;;;;;;;29.36;39.58;101890.84;4956329;29;20035;-80
2022/07/13 10:39:23;;;;;;;64.95;61.58;;;;;;;29.37;39.70;101884.94;4957350;28;20531;-78
2022/07/13 10:41:55;;;;;;;60.83;57.83;;;;;;;29.41;39.45;101891.47;4957245;28;20039;-79
2022/07/13 10:44:35;;;;;;;62.97;59.97;;;;;;;29.45;39.38;101908.28;4957185;28;20476;-77
2022/07/13 10:47:03;;;;;;;66.68;63.15;;;;;;;29.48;39.26;101896.44;4957370;28;20077;-77
2022/07/13 10:49:32;;;;;;;61.58;58.53;;;;;;;29.51;39.18;101893.00;4957673;28;20046;-78
2022/07/13 10:52:20;;;;;;;62.72;59.63;;;;;;;29.55;39.64;101897.50;4957264;28;20046;-79
2022/07/13 10:55:05;;;;;;;65.80;62.47;;;;;;;29.58;39.44;101893.22;4957093;28;20082;-79
2022/07/13 10:57:32;;;;;;;61.50;58.33;;;;;;;29.59;39.21;101897.66;4957477;28;20039;-79
2022/07/13 11:00:13;;;;;;;64.45;61.25;;;;;;;29.63;39.47;101909.72;4956894;28;20126;-81
2022/07/13 11:02:43;;;;;;;61.90;58.97;;;;;;;29.66;39.24;101900.72;4957006;28;20488;-84
2022/07/13 11:05:09;;;;;;;63.55;60.55;;;;;;;29.69;39.57;101902.81;4957063;28;20483;-78
2022/07/13 11:07:42;;;;;;;62.65;59.55;;;;;;;29.71;39.26;101899.66;4956858;28;20066;-76
2022/07/13 11:10:25;;;;;;;63.85;60.85;;;;;;;29.74;39.10;101899.00;4956046;28;20438;-78
2022/07/13 11:13:24;;;;;;;67.55;64.38;;;;;;;29.79;39.53;101890.41;4957146;28;20114;-75
2022/07/13 11:15:54;;;;;;;66.32;62.90;;;;;;;29.80;39.09;101891.22;4956386;28;20039;-78
2022/07/13 11:18:22;;;;;;;65.30;62.10;;;;;;;29.83;38.96;101902.47;4956641;28;20035;-76